Рыдома

Карта отелей и гостиниц, располагающихся рядом с аэропортом Рыдома :

Рыдома Тульская область 54° 15' 38.0988" N, 37° 15' 21.9996" E
Код аэродрома ИКАО
XUBZ
Код аэродрома RU
ЬУБЗ
Координаты
N54.26058° E037.25611°
Превышение над уровнем моря
201
Основная полоса
11/29
Курс магнитный
112,5/292,5
Длина основной ВПП
947
Ширина основной ВПП
80
Покрытие основной ВПП
Нетвёрдое (грунт)
Освещение ВПП
Нет
Тип: 
Аэродром
Класс аэродрома: 
Принадлежность: 
АОН
Статус: 
Действующий
Сайт: 
https://fb.com/rydomaairfield/
E-mail аэродрома: 
leksey@ya.ru
Страна: 
Россия
Регион: 
Тульская область
Город: 
Дополнительная информация: 
Владелец ПП: нет данных. Ранее относился к аэродромам ЭА. По состоянию на ВЛП 2017 пригоден для посадки ВС типа "Вильга" и планеров. Пороги и боковые границы ГВПП отмаркированы белыми полотнищами. Бывший военный аэродром. Использовался во времена ВОВ обоими сторонами. После войны совершались полеты самолеты Ан-8, Ан-12. С 1986 по 2005 аэродром использовался АТСК АООТ "ОКБ Сухого". Базировались пилотажные самолеты и планерное звено.

Найти трансфер

С помощью этой формы Вы можете найти трансфер из аэропорта Рыдома в город, аэропорт или вокзал:

Карта места

Javascript is required to view this map.

Погода в аэропортах:

Авиационная погода в Нижневартовске

Регион: 
Погода METAR: 
USNN 050800Z 36002MPS 3200 FU BKN019 19/16 Q1010 R03/0///65 NOSIG RMK QFE754
Время наблюдения
2021-08-05T08:00:00Z
Температура C
19.0
Точка росы
16.0
Направление ветра
360
Скорость ветра (узлы)
4
Метео видимость
1.99
Явления погоды
FU
Условия полета
IFR
Аэропорт подробнее: 

Авиационная погода в Братске

Регион: 
Погода METAR: 
UIBB 050800Z 31002MPS 1800 R30/1800N FU BKN027CB 21/14 Q1004 R30/CLRD60 NOSIG RMK QFE711/0948
Время наблюдения
2021-08-05T08:00:00Z
Температура C
21.0
Точка росы
14.0
Направление ветра
310
Скорость ветра (узлы)
4
Метео видимость
1.12
Явления погоды
FU
Условия полета
IFR
Аэропорт подробнее: 

Авиационная погода в аэропорту Новый

Регион: 
Погода METAR: 
UHHH 050800Z 05002MPS 010V090 9999 -SHRA VCTS SCT033CB 22/21 Q1002 R23R/290045 TEMPO 3100 -TSRA RMK QFE745/0994
Время наблюдения
2021-08-05T08:00:00Z
Температура C
22.0
Точка росы
21.0
Направление ветра
50
Скорость ветра (узлы)
4
Метео видимость
6.21
Явления погоды
-SHRA VCTS
Условия полета
VFR
Аэропорт подробнее: 

Авиационная погода в Игнатьево

Регион: 
Погода METAR: 
UHBB 050800Z 14002MPS 110V180 9999 TS SCT033CB 25/21 Q0995 R18/290350 NOSIG RMK QFE731/0975
Время наблюдения
2021-08-05T08:00:00Z
Температура C
25.0
Точка росы
21.0
Направление ветра
140
Скорость ветра (узлы)
4
Метео видимость
6.21
Явления погоды
TS
Условия полета
VFR
Аэропорт подробнее: